Time;durP1;ratioP1;P1;durP2;ratioP2;P2;SDS_P1;SDS_P2;PMS_P1;PMS_P2;Temp;Humidity;BMP_temperature;BMP_pressure;BME280_temperature;BME280_humidity;BME280_pressure;Samples;Min_cycle;Max_cycle;Signal;HPM_P1;HPM_P2
2022/12/01 00:01:26;;;;;;;29.77;12.88;;;;;;;2.51;100.00;99347.06;5036325;28;20040;-76
2022/12/01 00:03:53;;;;;;;26.90;12.07;;;;;;;2.57;100.00;99349.22;5040176;28;20068;-76
2022/12/01 00:06:19;;;;;;;30.10;12.23;;;;;;;2.55;100.00;99341.31;5047008;28;20122;-77
2022/12/01 00:11:32;;;;;;;28.92;12.02;;;;;;;2.57;100.00;99346.53;5053628;28;20032;-76
2022/12/01 00:13:57;;;;;;;28.75;12.77;;;;;;;2.59;100.00;99352.56;5060233;28;20025;-77
2022/12/01 00:16:23;;;;;;;26.38;11.35;;;;;;;2.69;100.00;99364.09;5065231;28;20033;-78
2022/12/01 00:18:50;;;;;;;30.80;12.88;;;;;;;2.63;100.00;99356.66;5073930;28;20031;-77
2022/12/01 00:21:17;;;;;;;27.73;12.40;;;;;;;2.32;100.00;99318.53;5056567;28;20083;-77
2022/12/01 00:23:47;;;;;;;28.25;11.43;;;;;;;2.54;100.00;99352.13;5049718;28;20067;-77
2022/12/01 00:26:14;;;;;;;26.42;11.25;;;;;;;2.52;100.00;99344.28;5051902;28;20027;-76
2022/12/01 00:28:39;;;;;;;26.08;10.82;;;;;;;2.37;100.00;99309.13;5048510;28;20093;-77
2022/12/01 00:31:09;;;;;;;27.85;12.07;;;;;;;2.67;100.00;99354.53;5051655;28;20112;-77
2022/12/01 00:33:35;;;;;;;27.67;11.25;;;;;;;2.61;100.00;99345.25;5048677;28;20036;-77
2022/12/01 00:36:01;;;;;;;25.00;10.93;;;;;;;2.72;100.00;99368.34;5052414;28;20025;-77
2022/12/01 00:38:27;;;;;;;25.20;10.90;;;;;;;2.62;100.00;99349.66;5051319;28;20031;-77
2022/12/01 00:40:53;;;;;;;27.60;11.52;;;;;;;2.66;100.00;99348.38;5048575;28;20544;-77
2022/12/01 00:43:18;;;;;;;27.98;11.50;;;;;;;2.59;100.00;99336.53;5040517;28;20038;-76
2022/12/01 00:45:43;;;;;;;22.80;10.27;;;;;;;2.68;100.00;99346.41;5050705;28;20060;-77
2022/12/01 00:48:08;;;;;;;25.15;9.85;;;;;;;2.53;100.00;99345.13;5053083;28;20506;-77
2022/12/01 00:50:34;;;;;;;24.92;11.15;;;;;;;2.59;100.00;99347.22;5051258;28;20035;-76
2022/12/01 00:52:59;;;;;;;22.73;10.55;;;;;;;2.61;100.00;99347.94;5047058;28;20029;-76
2022/12/01 00:55:25;;;;;;;24.50;9.57;;;;;;;2.56;100.00;99336.81;5044879;28;20133;-76
2022/12/01 00:57:50;;;;;;;20.50;9.68;;;;;;;2.71;100.00;99367.50;5045454;28;20052;-77
2022/12/01 01:00:16;;;;;;;26.63;9.68;;;;;;;2.63;100.00;99362.84;5049468;28;20056;-77
2022/12/01 01:02:42;;;;;;;21.83;10.25;;;;;;;2.50;100.00;99348.06;5030905;28;20063;-77
2022/12/01 01:05:07;;;;;;;21.58;9.68;;;;;;;2.59;100.00;99363.25;5048545;28;20037;-77
2022/12/01 01:07:33;;;;;;;20.70;9.82;;;;;;;2.75;100.00;99378.72;5051961;28;20037;-77
2022/12/01 01:09:58;;;;;;;21.27;9.55;;;;;;;2.55;100.00;99345.84;5042018;28;20029;-77
2022/12/01 01:12:23;;;;;;;18.60;8.55;;;;;;;2.59;100.00;99373.94;5042567;28;20059;-77
2022/12/01 01:14:49;;;;;;;22.27;10.27;;;;;;;2.55;100.00;99349.34;5047796;28;20096;-76
2022/12/01 01:17:14;;;;;;;20.10;9.15;;;;;;;2.51;100.00;99363.94;5051615;28;20163;-76
2022/12/01 01:19:39;;;;;;;19.98;9.75;;;;;;;2.51;100.00;99357.75;5054225;28;20025;-77
2022/12/01 01:22:05;;;;;;;21.70;9.07;;;;;;;2.57;100.00;99366.09;5041360;28;20384;-77
2022/12/01 01:24:30;;;;;;;20.73;9.30;;;;;;;2.49;100.00;99355.25;5048541;28;20426;-77
2022/12/01 01:26:55;;;;;;;22.70;9.90;;;;;;;2.39;100.00;99333.03;5039814;28;20029;-77
2022/12/01 01:29:21;;;;;;;21.88;10.02;;;;;;;2.51;100.00;99363.94;5050983;28;20052;-77
2022/12/01 01:31:46;;;;;;;25.73;10.05;;;;;;;2.43;100.00;99353.09;5054089;28;20055;-77
2022/12/01 01:34:11;;;;;;;22.38;9.32;;;;;;;2.25;100.00;99322.72;5036245;28;20483;-77
2022/12/01 01:36:36;;;;;;;22.13;9.52;;;;;;;2.42;100.00;99354.94;5035907;28;20040;-76
2022/12/01 01:39:02;;;;;;;20.42;8.90;;;;;;;2.41;100.00;99365.75;5045696;28;20517;-77
2022/12/01 01:41:27;;;;;;;19.65;9.02;;;;;;;2.09;100.00;99321.41;5054024;28;20376;-77
2022/12/01 01:44:01;;;;;;;22.35;10.10;;;;;;;2.08;100.00;99318.91;5051306;28;20063;-77
2022/12/01 01:46:30;;;;;;;21.17;9.30;;;;;;;2.47;100.00;99369.72;5047344;28;20445;-77
2022/12/01 01:48:58;;;;;;;18.60;8.40;;;;;;;2.30;100.00;99340.00;5049178;28;20386;-77
2022/12/01 01:51:34;;;;;;;21.35;8.93;;;;;;;2.39;100.00;99355.22;5051732;28;20290;-78
2022/12/01 01:54:06;;;;;;;21.13;9.25;;;;;;;2.57;100.00;99390.13;5040358;28;20037;-77
2022/12/01 01:56:33;;;;;;;21.08;9.13;;;;;;;2.44;100.00;99386.88;5046640;28;20502;-77
2022/12/01 01:58:59;;;;;;;20.42;8.80;;;;;;;2.46;100.00;99376.03;5038554;28;20068;-77
2022/12/01 02:01:24;;;;;;;23.42;10.48;;;;;;;2.14;100.00;99334.34;5049685;28;20131;-77
2022/12/01 02:03:53;;;;;;;22.08;9.27;;;;;;;2.44;100.00;99386.88;5052855;28;20025;-77
2022/12/01 02:06:18;;;;;;;18.95;8.43;;;;;;;2.33;100.00;99358.44;5039507;28;20441;-77
2022/12/01 02:08:44;;;;;;;21.52;9.15;;;;;;;2.34;100.00;99370.81;5034218;28;20029;-76
2022/12/01 02:11:29;;;;;;;19.52;8.68;;;;;;;2.40;100.00;99390.78;5056407;28;20470;-77
2022/12/01 02:13:57;;;;;;;21.55;9.25;;;;;;;2.41;100.00;99379.09;5036131;28;20111;-77
2022/12/01 02:20:06;;;;;;;19.83;8.80;;;;;;;2.35;100.00;99360.97;4946785;28;20037;-77
2022/12/01 02:22:44;;;;;;;;;;;;;;;2.35;100.00;99377.81;5044202;28;20032;-76
2022/12/01 02:25:25;;;;;;;19.08;8.70;;;;;;;2.34;100.00;99370.81;5043525;28;20336;-76
2022/12/01 02:28:06;;;;;;;22.88;10.02;;;;;;;2.32;100.00;99379.94;5039451;28;20098;-76
2022/12/01 02:30:31;;;;;;;20.27;9.00;;;;;;;2.30;100.00;99366.72;5032840;28;20021;-76
2022/12/01 02:33:33;;;;;;;20.73;9.27;;;;;;;2.31;100.00;99359.56;5034343;28;20434;-76
2022/12/01 02:36:08;;;;;;;21.77;9.20;;;;;;;2.30;100.00;99368.53;5041125;28;20102;-76
2022/12/01 02:38:42;;;;;;;22.58;10.02;;;;;;;2.26;100.00;99367.97;5047166;28;20025;-77
2022/12/01 02:41:15;;;;;;;22.75;10.13;;;;;;;2.18;100.00;99370.50;5049162;28;20551;-76
2022/12/01 02:44:17;;;;;;;25.10;10.43;;;;;;;2.04;100.00;99338.81;5036068;28;20036;-76
2022/12/01 02:46:51;;;;;;;24.73;10.05;;;;;;;2.22;100.00;99368.38;5052677;28;20048;-75
2022/12/01 02:49:22;;;;;;;28.55;10.18;;;;;;;2.15;100.00;99362.75;5053072;28;20116;-76
2022/12/01 02:51:50;;;;;;;24.33;10.32;;;;;;;2.03;100.00;99345.16;5040663;28;20127;-76
2022/12/01 02:54:16;;;;;;;23.83;10.80;;;;;;;2.13;100.00;99354.88;5047991;28;20483;-76
2022/12/01 02:56:45;;;;;;;23.10;10.30;;;;;;;2.14;100.00;99371.72;5049814;28;20429;-76
2022/12/01 02:59:13;;;;;;;27.60;10.98;;;;;;;2.12;100.00;99365.66;5043229;28;20031;-76
2022/12/01 03:01:44;;;;;;;27.50;10.52;;;;;;;2.14;100.00;99374.41;5041946;28;20499;-76
2022/12/01 03:04:51;;;;;;;27.00;10.95;;;;;;;2.06;100.00;99358.22;5039647;28;20080;-76
2022/12/01 03:07:31;;;;;;;25.77;10.45;;;;;;;2.16;100.00;99370.63;5044349;28;20037;-76
2022/12/01 03:10:18;;;;;;;25.30;10.93;;;;;;;2.12;100.00;99363.88;5046130;28;20043;-76
2022/12/01 03:13:05;;;;;;;24.77;11.68;;;;;;;2.11;100.00;99367.50;5052223;28;20044;-76
2022/12/01 03:15:38;;;;;;;27.90;10.60;;;;;;;2.01;100.00;99349.78;5043926;28;20522;-76
2022/12/01 03:18:37;;;;;;;28.48;11.30;;;;;;;2.08;100.00;99361.59;5052511;28;20530;-76
2022/12/01 03:21:24;;;;;;;31.70;12.02;;;;;;;2.06;100.00;99359.06;5051816;28;20055;-76
2022/12/01 03:23:54;;;;;;;26.48;11.52;;;;;;;2.05;100.00;99365.38;5048559;28;20025;-76
2022/12/01 03:26:23;;;;;;;27.40;11.63;;;;;;;2.01;100.00;99352.44;5046464;28;20033;-76
2022/12/01 03:28:52;;;;;;;26.17;11.90;;;;;;;2.03;100.00;99350.50;5040533;28;20499;-76
2022/12/01 03:31:24;;;;;;;29.05;11.32;;;;;;;2.06;100.00;99367.06;5031820;28;20057;-76
2022/12/01 03:33:56;;;;;;;32.13;11.90;;;;;;;2.04;100.00;99361.00;5036665;28;20032;-76
2022/12/01 03:36:27;;;;;;;31.13;11.57;;;;;;;1.97;100.00;99347.38;5043881;28;20300;-76
2022/12/01 03:39:01;;;;;;;26.42;11.60;;;;;;;1.93;100.00;99332.59;5052191;28;20023;-76
2022/12/01 03:41:42;;;;;;;30.95;12.13;;;;;;;2.05;100.00;99369.88;5051802;28;20043;-76
2022/12/01 03:44:19;;;;;;;34.92;13.00;;;;;;;1.96;100.00;99345.69;5041680;28;20103;-76
2022/12/01 03:46:54;;;;;;;24.17;11.13;;;;;;;2.07;100.00;99363.44;5039052;28;20070;-76
2022/12/01 03:49:23;;;;;;;29.60;11.52;;;;;;;2.01;100.00;99347.09;5048359;28;20028;-77
2022/12/01 03:51:58;;;;;;;29.38;12.27;;;;;;;2.10;100.00;99363.16;5035169;28;20025;-76
2022/12/01 03:54:44;;;;;;;26.05;11.60;;;;;;;2.12;100.00;99363.00;5051542;28;20033;-76
2022/12/01 03:57:14;;;;;;;31.27;12.82;;;;;;;2.00;100.00;99348.09;5050571;28;20063;-76
2022/12/01 03:59:42;;;;;;;32.78;12.70;;;;;;;2.02;100.00;99346.13;5047659;28;20031;-77
2022/12/01 04:02:08;;;;;;;32.53;12.20;;;;;;;2.05;100.00;99337.88;5042382;28;20030;-77
2022/12/01 04:04:33;;;;;;;32.25;12.98;;;;;;;2.04;100.00;99339.66;5042355;28;20399;-77
2022/12/01 04:06:59;;;;;;;31.52;12.05;;;;;;;2.11;100.00;99353.31;5051188;28;20013;-77
2022/12/01 04:09:24;;;;;;;27.77;12.38;;;;;;;2.10;100.00;99349.81;5051074;28;20506;-79
2022/12/01 04:14:34;;;;;;;29.92;12.55;;;;;;;2.18;100.00;99362.47;5046047;28;20040;-76
2022/12/01 04:16:59;;;;;;;28.90;12.63;;;;;;;2.11;100.00;99356.00;5039634;28;20399;-76
2022/12/01 04:19:27;;;;;;;31.17;12.55;;;;;;;1.89;100.00;99315.19;5042439;28;20013;-83
2022/12/01 04:21:52;;;;;;;35.65;13.75;;;;;;;2.03;100.00;99342.47;5045785;28;20025;-78
2022/12/01 04:24:18;;;;;;;28.92;12.20;;;;;;;2.10;100.00;99359.66;5054678;28;20059;-78
2022/12/01 04:26:50;;;;;;;29.05;12.73;;;;;;;2.19;100.00;99361.50;5057604;28;20380;-80
2022/12/01 04:29:48;;;;;;;34.95;13.82;;;;;;;2.22;100.00;99355.88;5056283;28;20040;-78
2022/12/01 04:32:15;;;;;;;27.35;12.48;;;;;;;2.25;100.00;99365.44;5052590;28;20093;-78
2022/12/01 04:34:44;;;;;;;27.27;12.35;;;;;;;2.03;100.00;99335.31;5064024;28;20029;-79
2022/12/01 04:37:50;;;;;;;29.20;12.60;;;;;;;2.21;100.00;99367.53;5033458;28;20558;-80
2022/12/01 04:40:20;;;;;;;28.45;12.38;;;;;;;2.28;100.00;99370.50;5040781;28;20044;-78
2022/12/01 04:42:50;;;;;;;25.83;11.55;;;;;;;2.18;100.00;99351.81;5053357;28;20075;-78
2022/12/01 04:45:15;;;;;;;26.10;11.93;;;;;;;1.95;100.00;99317.31;5064499;28;20036;-78
2022/12/01 04:47:44;;;;;;;28.00;12.60;;;;;;;1.84;100.00;99297.91;5047921;28;20033;-78
2022/12/01 04:50:10;;;;;;;26.08;11.88;;;;;;;1.89;100.00;99306.34;5060123;28;20036;-79
2022/12/01 04:52:36;;;;;;;30.02;12.88;;;;;;;2.23;100.00;99357.59;5055541;28;20039;-79
2022/12/01 04:55:02;;;;;;;30.35;12.95;;;;;;;2.17;100.00;99344.75;5061821;28;20033;-88
2022/12/01 05:00:50;;;;;;;32.83;12.02;;;;;;;1.53;100.00;99249.94;5064998;28;20087;-83
2022/12/01 05:03:16;;;;;;;27.42;12.70;;;;;;;1.97;100.00;99338.53;5049193;28;20029;-75
2022/12/01 05:05:41;;;;;;;25.35;11.52;;;;;;;2.12;100.00;99366.53;5053040;28;20406;-77
2022/12/01 05:11:31;;;;;;;27.52;12.95;;;;;;;2.09;100.00;99365.94;5060063;28;20434;-80
2022/12/01 05:13:56;;;;;;;30.58;11.25;;;;;;;2.03;100.00;99326.47;5046456;28;20068;-81
2022/12/01 05:16:27;;;;;;;28.02;11.73;;;;;;;1.92;100.00;99311.41;5053483;28;20041;-75
2022/12/01 05:21:40;;;;;;;30.45;12.60;;;;;;;2.22;100.00;99352.38;5051019;28;20086;-80
2022/12/01 05:24:07;;;;;;;30.42;12.05;;;;;;;2.16;100.00;99343.09;5047955;28;20033;-77
2022/12/01 05:26:32;;;;;;;25.75;11.45;;;;;;;2.23;100.00;99356.72;5038118;28;20071;-79
2022/12/01 05:28:57;;;;;;;30.27;12.48;;;;;;;2.25;100.00;99370.78;5050710;28;20013;-77
2022/12/01 05:31:26;;;;;;;28.60;11.85;;;;;;;2.11;100.00;99348.81;5058193;28;20013;-86
2022/12/01 05:33:57;;;;;;;24.13;11.05;;;;;;;1.89;100.00;99307.19;5067400;28;20043;-80
2022/12/01 05:36:22;;;;;;;29.70;13.10;;;;;;;2.17;100.00;99360.78;5045634;28;20067;-77
2022/12/01 05:38:48;;;;;;;28.67;11.98;;;;;;;2.04;100.00;99344.16;5051621;28;20013;-79
2022/12/01 05:41:13;;;;;;;29.42;11.50;;;;;;;2.09;100.00;99340.09;5053197;28;20143;-80
2022/12/01 05:43:38;;;;;;;27.33;12.02;;;;;;;2.15;100.00;99352.91;5048834;28;20029;-79
2022/12/01 05:46:06;;;;;;;29.38;11.90;;;;;;;2.14;100.00;99345.88;5053459;28;20083;-80
2022/12/01 05:48:31;;;;;;;27.75;12.05;;;;;;;2.02;100.00;99338.09;5048661;28;20024;-78
2022/12/01 05:51:05;;;;;;;23.75;11.15;;;;;;;2.12;100.00;99355.00;5065308;28;20049;-81
2022/12/01 05:53:53;;;;;;;25.70;11.30;;;;;;;2.26;100.00;99373.31;5072865;28;20055;-81
2022/12/01 05:56:20;;;;;;;19.55;7.70;;;;;;;2.21;100.00;99362.22;5056689;28;20033;-75
2022/12/01 05:58:45;;;;;;;24.45;10.70;;;;;;;2.21;100.00;99370.22;5054168;28;20029;-76
2022/12/01 06:01:11;;;;;;;28.33;11.98;;;;;;;2.18;100.00;99352.66;5063575;28;20033;-76
2022/12/01 06:03:36;;;;;;;32.17;11.32;;;;;;;2.16;100.00;99365.28;5052566;28;20052;-79
2022/12/01 06:06:02;;;;;;;28.35;12.10;;;;;;;2.09;100.00;99365.94;5067805;28;20475;-77
2022/12/01 06:08:27;;;;;;;28.67;12.52;;;;;;;2.10;100.00;99354.31;5070389;28;20021;-77
2022/12/01 06:10:52;;;;;;;29.13;13.80;;;;;;;2.18;100.00;99365.16;5066963;28;20021;-80
2022/12/01 06:13:18;;;;;;;32.17;13.05;;;;;;;2.26;100.00;99365.31;5061212;28;20033;-78
2022/12/01 06:16:05;;;;;;;29.45;11.55;;;;;;;2.23;100.00;99384.28;5070240;28;20017;-82
2022/12/01 06:18:36;;;;;;;26.35;11.95;;;;;;;2.21;100.00;99380.06;5076860;28;20035;-85
2022/12/01 06:21:02;;;;;;;24.98;11.48;;;;;;;1.90;100.00;99327.53;5051527;28;20485;-79
2022/12/01 06:23:27;;;;;;;29.65;12.13;;;;;;;2.07;100.00;99349.22;5045060;28;20064;-79
2022/12/01 06:26:09;;;;;;;26.33;11.73;;;;;;;1.56;100.00;99276.31;5055298;28;20001;-89
2022/12/01 06:28:42;;;;;;;24.05;10.57;;;;;;;2.00;100.00;99356.09;5066418;28;20031;-86
2022/12/01 06:31:22;;;;;;;27.45;11.48;;;;;;;2.14;100.00;99391.25;5074554;28;20037;-78
2022/12/01 06:33:48;;;;;;;28.38;11.93;;;;;;;1.65;100.00;99320.00;5053088;28;20082;-77
2022/12/01 06:36:13;;;;;;;26.25;12.02;;;;;;;2.00;100.00;99372.94;5067024;28;20085;-80
2022/12/01 06:39:08;;;;;;;29.88;12.55;;;;;;;2.20;100.00;99400.53;5044800;28;20060;-81
2022/12/01 06:41:35;;;;;;;53.25;24.10;;;;;;;2.12;100.00;99393.25;5043934;28;20385;-76
2022/12/01 06:44:00;;;;;;;30.52;13.90;;;;;;;2.22;100.00;99400.41;5041161;28;20029;-76
2022/12/01 06:46:31;;;;;;;34.17;13.70;;;;;;;2.08;100.00;99378.47;5050876;28;20020;-88
2022/12/01 06:52:21;;;;;;;30.02;12.55;;;;;;;1.61;100.00;99291.91;5065027;28;20072;-80
2022/12/01 06:58:08;;;;;;;24.63;11.02;;;;;;;1.81;100.00;99336.38;5072781;28;20056;-79
2022/12/01 07:00:42;;;;;;;28.67;11.23;;;;;;;2.26;100.00;99386.66;5048110;28;20037;-86
2022/12/01 07:10:16;;;;;;;28.20;11.00;;;;;;;2.21;100.00;99402.25;5055936;28;20071;-85
2022/12/01 07:12:44;;;;;;;26.95;11.43;;;;;;;2.19;100.00;99402.38;5050938;28;20029;-81
2022/12/01 07:15:10;;;;;;;26.05;12.15;;;;;;;2.03;100.00;99379.84;5056736;28;20055;-79
2022/12/01 07:17:35;;;;;;;26.02;11.38;;;;;;;1.98;100.00;99378.41;5051621;28;20017;-75
2022/12/01 07:20:01;;;;;;;29.67;11.70;;;;;;;2.14;100.00;99391.25;5054844;28;20037;-77
2022/12/01 07:22:27;;;;;;;25.30;10.88;;;;;;;2.21;100.00;99401.41;5058252;28;20025;-77
2022/12/01 07:24:52;;;;;;;26.70;11.23;;;;;;;2.26;100.00;99404.53;5045193;28;20021;-78
2022/12/01 07:27:18;;;;;;;26.85;11.65;;;;;;;2.27;100.00;99412.38;5056434;28;20040;-78
2022/12/01 07:29:43;;;;;;;29.38;11.43;;;;;;;1.97;100.00;99366.06;5044973;28;20371;-79
2022/12/01 07:32:09;;;;;;;24.90;11.25;;;;;;;2.22;100.00;99400.41;5033535;28;20065;-80
2022/12/01 07:34:36;;;;;;;24.48;11.27;;;;;;;1.97;100.00;99363.38;5067146;28;20088;-81
2022/12/01 07:37:02;;;;;;;25.80;11.13;;;;;;;2.23;100.00;99415.44;5037022;28;20427;-73
2022/12/01 07:39:27;;;;;;;25.58;11.20;;;;;;;2.12;100.00;99392.38;5044284;28;20135;-73
2022/12/01 07:41:52;;;;;;;26.00;11.25;;;;;;;2.13;100.00;99402.09;5048947;28;20060;-73
2022/12/01 07:44:17;;;;;;;25.42;10.88;;;;;;;2.05;100.00;99378.72;5036614;28;20029;-73
2022/12/01 07:46:43;;;;;;;26.10;11.40;;;;;;;2.29;100.00;99414.91;5045233;28;20458;-72
2022/12/01 07:49:10;;;;;;;27.15;11.23;;;;;;;2.20;100.00;99389.84;5050659;28;20032;-73
2022/12/01 07:51:35;;;;;;;31.73;11.77;;;;;;;2.32;100.00;99399.47;5035031;28;20036;-71
2022/12/01 07:54:58;;;;;;;25.20;11.73;;;;;;;2.39;100.00;99416.63;5035324;28;20034;-76
2022/12/01 07:57:52;;;;;;;26.30;11.07;;;;;;;2.45;100.00;99431.25;5071940;28;20029;-87
2022/12/01 08:00:18;;;;;;;24.70;11.38;;;;;;;2.39;100.00;99416.63;5059999;28;20055;-73
2022/12/01 08:03:01;;;;;;;27.45;11.77;;;;;;;2.35;100.00;99427.72;5067182;28;20029;-85
2022/12/01 08:22:37;;;;;;;26.50;10.70;;;;;;;2.10;100.00;99335.63;5078084;28;20110;-84
2022/12/01 08:25:03;;;;;;;30.52;12.35;;;;;;;2.28;100.00;99363.34;5065928;28;20091;-79
2022/12/01 08:27:40;;;;;;;24.13;11.80;;;;;;;2.75;100.00;99426.81;5062323;28;20041;-81
2022/12/01 08:30:06;;;;;;;28.42;12.88;;;;;;;2.59;100.00;99395.31;5078513;28;20085;-83
2022/12/01 08:32:31;;;;;;;27.45;11.60;;;;;;;2.40;100.00;99370.25;5074380;28;20037;-78
2022/12/01 08:34:57;;;;;;;23.63;10.68;;;;;;;2.36;100.00;99355.50;5043085;28;20028;-79
2022/12/01 08:37:22;;;;;;;25.67;11.18;;;;;;;2.49;100.00;99405.13;5058548;28;20032;-77
2022/12/01 08:39:47;;;;;;;28.48;12.00;;;;;;;2.51;100.00;99397.81;5044402;28;20036;-79
2022/12/01 08:42:13;;;;;;;22.98;11.32;;;;;;;2.59;100.00;99389.97;5042629;28;20051;-78
2022/12/01 08:44:38;;;;;;;28.38;11.75;;;;;;;2.86;100.00;99445.44;5053074;28;20449;-78
2022/12/01 08:47:03;;;;;;;26.73;11.40;;;;;;;2.93;100.00;99440.38;5055131;28;20020;-78
2022/12/01 08:49:29;;;;;;;29.60;11.52;;;;;;;2.75;100.00;99425.03;5054778;28;20422;-76
2022/12/01 08:51:55;;;;;;;28.10;14.40;;;;;;;2.79;100.00;99428.25;5046263;28;20063;-77
2022/12/01 08:54:20;;;;;;;32.50;13.32;;;;;;;2.68;100.00;99407.84;5051157;28;20076;-81
2022/12/01 08:56:46;;;;;;;29.70;13.50;;;;;;;2.91;100.00;99434.31;5056572;28;20028;-77
2022/12/01 08:59:11;;;;;;;22.77;10.48;;;;;;;3.04;100.00;99437.59;5049145;28;20100;-76
2022/12/01 09:01:51;;;;;;;23.52;11.23;;;;;;;3.02;100.00;99434.19;5044195;28;20107;-79
2022/12/01 09:04:18;;;;;;;25.98;11.10;;;;;;;2.80;100.00;99398.72;5045035;28;20386;-76
2022/12/01 09:06:45;;;;;;;26.17;12.43;;;;;;;3.00;100.00;99417.44;5041240;28;20386;-77
2022/12/01 09:09:17;;;;;;;23.55;11.13;;;;;;;3.12;100.00;99419.00;5052941;28;20047;-74
2022/12/01 09:12:15;;;;;;;30.33;12.07;;;;;;;3.21;100.00;99418.16;5065205;28;20398;-87
2022/12/01 09:14:46;;;;;;;28.17;10.65;;;;;;;3.07;100.00;99405.22;5053350;28;20564;-76
2022/12/01 09:17:46;;;;;;;23.55;11.00;;;;;;;3.34;100.00;99428.56;5049867;28;20075;-82
2022/12/01 09:20:11;;;;;;;24.42;11.23;;;;;;;3.25;100.00;99408.88;5047099;28;20033;-78
2022/12/01 09:22:37;;;;;;;23.33;11.80;;;;;;;3.39;100.00;99420.94;5033944;28;20029;-77
2022/12/01 09:25:03;;;;;;;24.23;10.77;;;;;;;3.41;100.00;99434.19;5038293;28;20043;-77
2022/12/01 09:27:28;;;;;;;27.27;11.70;;;;;;;3.33;100.00;99423.34;5051995;28;20056;-77
2022/12/01 09:29:54;;;;;;;25.23;11.30;;;;;;;3.48;100.00;99421.91;5050002;28;20265;-76
2022/12/01 09:32:19;;;;;;;25.77;10.98;;;;;;;3.31;100.00;99411.97;5049162;28;20024;-77
2022/12/01 09:34:44;;;;;;;23.15;11.02;;;;;;;3.38;100.00;99427.31;5054561;28;20021;-76
2022/12/01 09:37:10;;;;;;;23.00;10.43;;;;;;;3.19;100.00;99409.41;5061708;28;20478;-77
2022/12/01 09:39:35;;;;;;;23.33;10.93;;;;;;;3.27;100.00;99441.66;5039487;28;20029;-77
2022/12/01 09:42:12;;;;;;;26.30;10.68;;;;;;;3.43;100.00;99416.16;5049735;28;20064;-81
2022/12/01 09:44:47;;;;;;;26.38;12.00;;;;;;;3.45;100.00;99430.22;5049114;28;20021;-73
2022/12/01 09:57:28;;;;;;;26.08;10.95;;;;;;;3.89;100.00;99427.91;5057132;28;20094;-77
2022/12/01 09:59:55;;;;;;;25.65;11.45;;;;;;;3.79;100.00;99405.66;5037052;28;20031;-78
2022/12/01 10:02:43;;;;;;;26.70;10.98;;;;;;;3.88;100.00;99400.31;5049562;28;20059;-78
2022/12/01 10:05:16;;;;;;;24.48;11.27;;;;;;;4.14;100.00;99416.56;5045335;28;20025;-78
2022/12/01 10:08:06;;;;;;;24.30;10.80;;;;;;;4.16;100.00;99414.53;5042550;28;20534;-76
2022/12/01 10:10:36;;;;;;;24.13;11.65;;;;;;;4.26;100.00;99413.69;5026673;22;20113;-74
2022/12/01 10:13:27;;;;;;;24.92;10.85;;;;;;;4.18;100.00;99401.84;5009300;28;20033;-76
2022/12/01 10:15:52;;;;;;;22.85;10.60;;;;;;;4.07;100.00;99414.59;4987689;28;20128;-74
2022/12/01 10:18:45;;;;;;;26.65;11.63;;;;;;;4.03;100.00;99406.00;4992049;28;20454;-73
2022/12/01 10:21:22;;;;;;;23.40;10.98;;;;;;;4.05;100.00;99392.47;4973898;28;20037;-74
2022/12/01 10:24:06;;;;;;;22.58;9.85;;;;;;;4.21;100.00;99394.53;4975499;28;20097;-73
2022/12/01 10:26:55;;;;;;;22.73;10.13;;;;;;;4.07;100.00;99396.69;4990046;28;20107;-74
2022/12/01 10:29:23;;;;;;;23.77;10.38;;;;;;;4.31;100.00;99390.81;4970080;28;20369;-73
2022/12/01 10:31:58;;;;;;;22.58;9.90;;;;;;;4.45;100.00;99384.09;4974291;28;20041;-74
2022/12/01 10:34:28;;;;;;;24.10;11.23;;;;;;;4.25;100.00;99377.19;4973781;28;20052;-76
2022/12/01 10:36:53;;;;;;;;;;;;;;;4.32;100.00;99380.94;4973999;28;20042;-76
2022/12/01 10:39:25;;;;;;;21.75;10.23;;;;;;;4.48;100.00;99377.59;4971500;28;19965;-75
2022/12/01 10:42:15;;;;;;;21.92;9.98;;;;;;;4.70;100.00;99381.69;4970617;28;20051;-75
2022/12/01 10:44:43;;;;;;;22.20;9.88;;;;;;;4.79;100.00;99367.38;4974499;28;20492;-76
2022/12/01 10:47:18;;;;;;;23.15;9.80;;;;;;;4.82;100.00;99372.44;4971697;28;20563;-75
2022/12/01 10:49:44;;;;;;;21.60;9.98;;;;;;;4.74;100.00;99356.25;4971500;28;20102;-76
2022/12/01 10:52:34;;;;;;;23.67;10.60;;;;;;;4.88;100.00;99360.28;4963284;28;20069;-76
2022/12/01 10:55:00;;;;;;;20.63;9.60;;;;;;;4.94;100.00;99363.16;4964547;28;20057;-74
2022/12/01 10:57:29;;;;;;;19.17;8.98;;;;;;;4.87;100.00;99359.41;4965979;28;20166;-75
2022/12/01 10:59:59;;;;;;;22.83;10.98;;;;;;;5.00;100.00;99364.38;4971928;28;20050;-75
2022/12/01 11:02:27;;;;;;;21.83;9.90;;;;;;;5.07;100.00;99370.00;4972768;28;20034;-74
2022/12/01 11:04:57;;;;;;;24.20;10.48;;;;;;;5.01;100.00;99366.09;4971810;28;20404;-74
2022/12/01 11:07:26;;;;;;;20.05;9.20;;;;;;;5.02;100.00;99365.91;4980853;28;20027;-74
2022/12/01 11:10:12;;;;;;;20.25;10.13;;;;;;;4.93;100.00;99353.44;4962296;28;20027;-74
2022/12/01 11:12:38;;;;;;;19.65;8.98;;;;;;;4.89;100.00;99354.75;4964850;28;20031;-74
2022/12/01 11:15:04;;;;;;;22.33;9.45;;;;;;;4.94;100.00;99349.75;4980889;28;20026;-73
2022/12/01 11:17:39;;;;;;;20.90;10.07;;;;;;;5.24;100.00;99353.06;4966895;28;20031;-73
2022/12/01 11:20:27;;;;;;;19.85;9.77;;;;;;;5.33;100.00;99357.47;4970384;28;20521;-74
2022/12/01 11:23:14;;;;;;;21.10;10.13;;;;;;;5.48;100.00;99353.22;4974210;28;20022;-73
2022/12/01 11:25:40;;;;;;;21.05;10.23;;;;;;;5.42;100.00;99318.97;4970613;28;21430;-74
2022/12/01 11:28:05;;;;;;;18.63;9.85;;;;;;;5.61;100.00;99338.56;4966450;28;20034;-73
2022/12/01 11:30:32;;;;;;;21.58;9.55;;;;;;;5.84;100.00;99339.69;4986524;28;20065;-73
2022/12/01 11:33:00;;;;;;;22.42;10.43;;;;;;;6.02;100.00;99336.09;4970288;28;20023;-74
2022/12/01 11:35:31;;;;;;;19.23;9.50;;;;;;;6.25;100.00;99334.50;4968485;28;20145;-73
2022/12/01 11:38:00;;;;;;;19.42;9.27;;;;;;;6.49;100.00;99324.84;4968942;28;20773;-74
2022/12/01 11:40:43;;;;;;;21.20;9.27;;;;;;;6.66;100.00;99325.72;4964977;28;20027;-73
2022/12/01 11:43:22;;;;;;;24.67;10.15;;;;;;;6.57;100.00;99306.03;4967875;28;20030;-73
2022/12/01 11:45:48;;;;;;;18.77;8.82;;;;;;;6.93;100.00;99316.50;4953314;28;20015;-73
2022/12/01 11:48:19;;;;;;;17.63;8.82;;;;;;;7.11;100.00;99317.19;4968058;28;20416;-76
2022/12/01 11:51:05;;;;;;;18.55;9.75;;;;;;;7.20;100.00;99324.25;4967448;28;20027;-73
2022/12/01 11:53:36;;;;;;;21.98;10.55;;;;;;;7.27;100.00;99312.81;4968702;28;20035;-73
2022/12/01 11:56:22;;;;;;;21.55;9.88;;;;;;;7.38;100.00;99301.69;4969468;28;20042;-73
2022/12/01 11:59:11;;;;;;;17.13;8.98;;;;;;;7.17;100.00;99312.97;4973821;28;20031;-78
2022/12/01 12:01:48;;;;;;;18.67;9.30;;;;;;;6.99;100.00;99315.81;4979683;28;20033;-76
2022/12/01 12:04:25;;;;;;;18.73;10.02;;;;;;;6.70;100.00;99309.06;4970965;28;20034;-78
2022/12/01 12:07:33;;;;;;;19.58;10.07;;;;;;;6.69;100.00;99306.56;4974118;28;20027;-79
2022/12/01 12:10:25;;;;;;;20.55;10.63;;;;;;;6.70;100.00;99294.78;4974374;28;20027;-79
2022/12/01 12:13:15;;;;;;;19.17;9.65;;;;;;;6.54;100.00;99312.59;4988081;28;20026;-80
2022/12/01 12:18:35;;;;;;;17.67;9.27;;;;;;;6.68;100.00;99307.56;5028293;28;20068;-61
2022/12/01 12:21:07;;;;;;;17.05;9.00;;;;;;;6.52;100.00;99308.38;5030200;28;20431;-61
2022/12/01 12:23:50;;;;;;;19.10;9.13;;;;;;;6.48;100.00;99305.19;5031496;28;20028;-61
2022/12/01 12:26:20;;;;;;;18.55;9.82;;;;;;;6.47;100.00;99300.81;5028282;28;20029;-60
2022/12/01 12:28:58;;;;;;;18.85;9.57;;;;;;;6.32;100.00;99308.69;5038848;28;20530;-61
2022/12/01 12:31:27;;;;;;;20.20;9.27;;;;;;;6.40;100.00;99293.59;5045566;28;20038;-61
2022/12/01 12:34:12;;;;;;;20.75;9.27;;;;;;;6.67;100.00;99295.13;5026630;28;20025;-65
2022/12/01 12:36:46;;;;;;;17.63;8.48;;;;;;;6.75;100.00;99290.59;5028609;28;20068;-61
2022/12/01 12:39:33;;;;;;;19.08;8.70;;;;;;;6.84;100.00;99295.97;5035634;28;20029;-61
2022/12/01 12:42:07;;;;;;;17.48;8.68;;;;;;;6.98;100.00;99289.94;5037368;28;20033;-61